createdAt,value
2023-04-11T00:00:18.358Z,0.0
2023-04-11T00:05:16.238Z,0.0
2023-04-11T00:10:16.285Z,0.0
2023-04-11T00:15:16.348Z,0.0
2023-04-11T00:20:16.269Z,0.0
2023-04-11T00:25:16.235Z,0.0
2023-04-11T00:30:16.355Z,0.0
2023-04-11T00:35:16.564Z,0.0
2023-04-11T00:40:16.354Z,0.0
2023-04-11T00:45:16.769Z,0.0
2023-04-11T00:50:16.298Z,0.0
2023-04-11T00:55:16.335Z,0.0
2023-04-11T01:00:16.728Z,0.0
2023-04-11T01:05:16.767Z,0.0
2023-04-11T01:10:16.358Z,0.0
2023-04-11T01:15:16.498Z,0.0
2023-04-11T01:20:16.604Z,0.0
2023-04-11T01:25:16.486Z,0.0
2023-04-11T01:30:16.485Z,0.0
2023-04-11T01:35:16.468Z,0.0
2023-04-11T01:40:16.619Z,0.0
2023-04-11T01:45:16.907Z,0.0
2023-04-11T01:50:16.434Z,0.0
2023-04-11T01:55:16.679Z,0.0
2023-04-11T02:00:16.712Z,0.0
2023-04-11T02:05:16.573Z,0.0
2023-04-11T02:10:16.572Z,0.0
2023-04-11T02:15:16.903Z,0.0
2023-04-11T02:20:16.517Z,0.0
2023-04-11T02:25:16.662Z,0.0
2023-04-11T02:30:16.981Z,0.0
2023-04-11T02:35:16.665Z,0.0
2023-04-11T02:40:16.569Z,0.0
2023-04-11T02:45:16.957Z,0.0
2023-04-11T02:50:16.628Z,0.0
2023-04-11T02:55:17.033Z,0.0
2023-04-11T03:00:16.675Z,0.0
2023-04-11T03:05:16.859Z,0.0
2023-04-11T03:10:16.628Z,0.0
2023-04-11T03:15:16.942Z,0.0
2023-04-11T03:20:16.771Z,0.0
2023-04-11T03:25:16.831Z,0.0
2023-04-11T03:30:16.993Z,0.0
2023-04-11T03:35:16.742Z,0.0
2023-04-11T03:40:16.779Z,0.0
2023-04-11T03:45:16.914Z,0.0
2023-04-11T03:50:16.749Z,0.0
2023-04-11T03:55:16.833Z,0.0
2023-04-11T04:00:17.862Z,0.0
2023-04-11T04:05:18.210Z,0.0
2023-04-11T04:10:17.943Z,0.0
2023-04-11T04:15:17.907Z,0.0
2023-04-11T04:20:17.971Z,0.0
2023-04-11T04:25:18.012Z,0.0
2023-04-11T04:30:18.051Z,0.0
2023-04-11T04:35:18.042Z,0.0
2023-04-11T04:40:17.952Z,0.0
2023-04-11T04:45:18.576Z,0.0
2023-04-11T04:50:17.929Z,0.0
2023-04-11T04:55:18.054Z,0.0
2023-04-11T05:00:17.977Z,0.0
2023-04-11T05:05:18.115Z,0.0
2023-04-11T05:10:18.031Z,0.0
2023-04-11T05:15:18.644Z,0.0
2023-04-11T05:20:18.100Z,0.0
2023-04-11T05:25:18.275Z,0.0
2023-04-11T05:30:18.024Z,0.0
2023-04-11T05:35:18.369Z,0.0
2023-04-11T05:40:18.094Z,0.0
2023-04-11T05:45:18.642Z,0.0
2023-04-11T05:50:17.936Z,0.0
2023-04-11T05:55:18.437Z,0.0
2023-04-11T06:00:18.196Z,0.0
2023-04-11T06:05:18.285Z,0.0
2023-04-11T06:10:18.150Z,0.0
2023-04-11T06:15:18.424Z,0.0
2023-04-11T06:20:18.152Z,0.0
2023-04-11T06:25:18.569Z,0.0
2023-04-11T06:30:18.665Z,0.0
2023-04-11T06:35:18.296Z,0.0
2023-04-11T06:40:18.393Z,0.0
2023-04-11T06:45:16.310Z,0.0
2023-04-11T06:50:16.175Z,0.0
2023-04-11T06:55:16.247Z,0.0
2023-04-11T07:00:16.302Z,0.0
2023-04-11T07:05:16.528Z,0.0
2023-04-11T07:10:16.234Z,0.0
2023-04-11T07:15:16.414Z,0.0
2023-04-11T07:20:16.270Z,0.0
2023-04-11T07:25:16.325Z,0.0
2023-04-11T07:30:16.312Z,0.0
2023-04-11T07:35:16.727Z,0.0
2023-04-11T07:40:17.941Z,0.0
2023-04-11T07:45:16.520Z,0.0
2023-04-11T07:50:16.370Z,0.0
2023-04-11T07:55:16.441Z,0.0
2023-04-11T08:00:16.403Z,0.0
2023-04-11T08:05:16.570Z,0.0
2023-04-11T08:10:16.391Z,0.0
2023-04-11T08:15:16.809Z,0.0
2023-04-11T08:20:16.412Z,0.0
2023-04-11T08:25:16.571Z,0.0
2023-04-11T08:30:16.601Z,0.0
2023-04-11T08:35:16.508Z,0.0
2023-04-11T08:40:16.938Z,0.0
2023-04-11T08:45:16.874Z,0.0
2023-04-11T08:50:16.748Z,0.0
2023-04-11T08:55:16.584Z,0.0
2023-04-11T09:00:16.596Z,0.0
2023-04-11T09:05:16.550Z,0.0
2023-04-11T09:10:16.512Z,0.0
2023-04-11T09:15:16.844Z,0.0
2023-04-11T09:20:16.533Z,0.0
2023-04-11T09:25:16.768Z,0.0
2023-04-11T09:30:16.798Z,0.0
2023-04-11T09:35:16.650Z,0.0
2023-04-11T09:40:16.779Z,0.0
2023-04-11T09:45:17.119Z,0.0
2023-04-11T09:50:16.676Z,0.0
2023-04-11T09:55:16.967Z,0.0
2023-04-11T10:00:17.030Z,0.0
2023-04-11T10:05:16.759Z,0.0
2023-04-11T10:10:16.773Z,0.0
2023-04-11T10:15:16.858Z,0.0
2023-04-11T10:20:16.831Z,0.0
2023-04-11T10:25:16.816Z,0.0
2023-04-11T10:30:16.854Z,0.0
2023-04-11T10:35:17.141Z,0.0
2023-04-11T10:40:16.769Z,0.0
2023-04-11T10:45:16.976Z,0.0
2023-04-11T10:50:16.937Z,0.0
2023-04-11T10:55:16.874Z,0.0
2023-04-11T11:00:17.047Z,0.0
2023-04-11T11:05:17.197Z,0.0
2023-04-11T11:10:16.945Z,0.0
2023-04-11T11:15:17.027Z,0.0
2023-04-11T11:20:16.785Z,0.0
2023-04-11T11:25:17.043Z,0.0
2023-04-11T11:30:17.316Z,0.0
2023-04-11T11:35:17.012Z,0.0
2023-04-11T11:40:16.945Z,0.0
2023-04-11T11:45:17.694Z,0.0
2023-04-11T11:50:16.905Z,0.0
2023-04-11T11:55:17.194Z,0.0
2023-04-11T12:00:17.165Z,0.0
2023-04-11T12:05:17.099Z,0.0
2023-04-11T12:10:17.042Z,0.0
2023-04-11T12:15:17.901Z,0.3
2023-04-11T12:20:17.164Z,0.5
2023-04-11T12:25:17.066Z,0.6
2023-04-11T12:30:17.164Z,0.7
2023-04-11T12:35:17.234Z,0.6
2023-04-11T12:40:17.097Z,0.6
2023-04-11T12:45:17.318Z,0.7
2023-04-11T12:50:17.139Z,0.8
2023-04-11T12:55:17.404Z,0.8
2023-04-11T13:00:17.231Z,0.7
2023-04-11T13:05:17.709Z,0.6
2023-04-11T13:10:17.149Z,0.7
2023-04-11T13:15:17.388Z,0.9
2023-04-11T13:20:17.190Z,1.2
2023-04-11T13:25:17.586Z,1.3
2023-04-11T13:30:17.601Z,1.3
2023-04-11T13:35:17.424Z,1.4
2023-04-11T13:40:17.244Z,1.4
2023-04-11T13:45:17.426Z,1.7
2023-04-11T13:50:17.284Z,1.8
2023-04-11T13:55:17.333Z,1.9
2023-04-11T14:00:17.300Z,2.0
2023-04-11T14:05:17.549Z,2.1
2023-04-11T14:10:17.381Z,2.2
2023-04-11T14:15:18.011Z,2.3
2023-04-11T14:20:17.372Z,2.4
2023-04-11T14:25:17.438Z,2.5
2023-04-11T14:30:17.394Z,2.5
2023-04-11T14:35:17.682Z,2.5
2023-04-11T14:40:17.526Z,2.5
2023-04-11T14:45:17.621Z,2.4
2023-04-11T14:50:17.623Z,2.7
2023-04-11T14:55:17.522Z,2.7
2023-04-11T15:00:17.384Z,2.9
2023-04-11T15:05:17.546Z,2.8
2023-04-11T15:10:17.471Z,3.0
2023-04-11T15:15:17.730Z,3.2
2023-04-11T15:20:17.485Z,3.3
2023-04-11T15:25:17.826Z,3.4
2023-04-11T15:30:17.577Z,3.5
2023-04-11T15:35:17.578Z,3.5
2023-04-11T15:40:17.462Z,3.5
2023-04-11T15:45:18.173Z,3.3
2023-04-11T15:50:17.683Z,3.3
2023-04-11T15:55:17.554Z,3.4
2023-04-11T16:00:17.783Z,3.5
2023-04-11T16:05:17.884Z,3.4
2023-04-11T16:10:17.555Z,3.6
2023-04-11T16:15:17.793Z,3.7
2023-04-11T16:20:17.684Z,3.7
2023-04-11T16:25:18.016Z,3.9
2023-04-11T16:30:17.663Z,3.7
2023-04-11T16:35:17.864Z,3.6
2023-04-11T16:40:17.803Z,3.7
2023-04-11T16:45:17.775Z,3.6
2023-04-11T16:50:17.722Z,3.7
2023-04-11T16:55:18.273Z,3.7
2023-04-11T17:00:17.977Z,3.9
2023-04-11T17:05:17.883Z,4.0
2023-04-11T17:10:17.785Z,4.1
2023-04-11T17:15:18.152Z,4.1
2023-04-11T17:20:17.794Z,4.1
2023-04-11T17:25:17.881Z,3.9
2023-04-11T17:30:17.857Z,3.9
2023-04-11T17:35:18.087Z,3.9
2023-04-11T17:40:17.878Z,4.0
2023-04-11T17:45:18.758Z,4.0
2023-04-11T17:50:17.835Z,3.8
2023-04-11T17:55:18.400Z,3.8
2023-04-11T18:00:17.911Z,3.9
2023-04-11T18:05:23.850Z,3.8
2023-04-11T18:10:18.163Z,3.7
2023-04-11T18:15:18.162Z,3.0
2023-04-11T18:20:17.883Z,3.5
2023-04-11T18:25:17.976Z,3.5
2023-04-11T18:30:18.166Z,3.4
2023-04-11T18:35:18.300Z,3.2
2023-04-11T18:40:18.575Z,3.1
2023-04-11T18:45:18.298Z,3.1
2023-04-11T18:50:18.216Z,2.9
2023-04-11T18:55:18.084Z,2.7
2023-04-11T19:00:19.444Z,2.6
2023-04-11T19:05:19.111Z,2.6
2023-04-11T19:10:18.074Z,2.2
2023-04-11T19:15:18.504Z,2.0
2023-04-11T19:20:18.201Z,1.8
2023-04-11T19:25:18.182Z,1.8
2023-04-11T19:30:18.132Z,1.9
2023-04-11T19:35:18.207Z,1.7
2023-04-11T19:40:18.133Z,1.5
2023-04-11T19:45:18.444Z,1.5
2023-04-11T19:50:18.130Z,1.4
2023-04-11T19:55:18.611Z,1.5
2023-04-11T20:00:18.393Z,1.4
2023-04-11T20:05:18.275Z,1.2
2023-04-11T20:10:18.151Z,1.2
2023-04-11T20:15:16.549Z,1.1
2023-04-11T20:20:16.209Z,1.0
2023-04-11T20:25:16.654Z,1.1
2023-04-11T20:30:16.456Z,1.0
2023-04-11T20:35:16.405Z,0.9
2023-04-11T20:40:16.328Z,0.9
2023-04-11T20:45:16.452Z,0.8
2023-04-11T20:50:16.213Z,0.7
2023-04-11T20:55:16.498Z,0.5
2023-04-11T21:00:17.381Z,0.5
2023-04-11T21:05:16.358Z,0.5
2023-04-11T21:10:16.421Z,0.5
2023-04-11T21:15:16.428Z,0.5
2023-04-11T21:20:16.416Z,0.3
2023-04-11T21:25:16.566Z,0.5
2023-04-11T21:30:16.420Z,0.3
2023-04-11T21:35:16.775Z,0.0
2023-04-11T21:40:16.420Z,0.0
2023-04-11T21:45:16.739Z,0.0
2023-04-11T21:50:16.439Z,0.0
2023-04-11T21:55:16.548Z,0.0
2023-04-11T22:00:16.465Z,0.0
2023-04-11T22:05:16.605Z,0.0
2023-04-11T22:10:16.649Z,0.0
2023-04-11T22:15:16.808Z,0.0
2023-04-11T22:20:16.646Z,0.0
2023-04-11T22:25:16.566Z,0.0
2023-04-11T22:30:16.534Z,0.0
2023-04-11T22:35:16.688Z,0.0
2023-04-11T22:40:16.565Z,0.0
2023-04-11T22:45:17.265Z,0.0
2023-04-11T22:50:16.693Z,0.0
2023-04-11T22:55:16.632Z,0.0
2023-04-11T23:00:16.841Z,0.0
2023-04-11T23:05:16.630Z,0.0
2023-04-11T23:10:16.625Z,0.0
2023-04-11T23:15:16.900Z,0.0
2023-04-11T23:20:16.819Z,0.0
2023-04-11T23:25:16.898Z,0.0
2023-04-11T23:30:16.993Z,0.0
2023-04-11T23:35:17.099Z,0.0
2023-04-11T23:40:16.636Z,0.0
2023-04-11T23:45:16.845Z,0.0
2023-04-11T23:50:16.683Z,0.0
2023-04-11T23:55:17.252Z,0.0
